Time;durP1;ratioP1;P1;durP2;ratioP2;P2;SDS_P1;SDS_P2;PMS_P1;PMS_P2;Temp;Humidity;BMP_temperature;BMP_pressure;BME280_temperature;BME280_humidity;BME280_pressure;Samples;Min_cycle;Max_cycle;Signal;HPM_P1;HPM_P2
2023/05/06 00:01:38;;;;;;;;;;;;;;;13.14;80.85;98804.81;5032990;28;20035;-83
2023/05/06 00:04:04;;;;;;;;;;;;;;;12.82;83.85;98807.63;5049044;28;20362;-85
2023/05/06 00:06:29;;;;;;;;;;;;;;;12.64;84.34;98816.16;5050614;28;19935;-81
2023/05/06 00:08:54;;;;;;;;;;;;;;;12.58;85.31;98819.91;5050332;28;19921;-85
2023/05/06 00:11:19;;;;;;;;;;;;;;;12.14;89.52;98816.72;5054367;28;20015;-85
2023/05/06 00:13:45;;;;;;;;;;;;;;;12.04;89.07;98812.13;5035215;28;20377;-84
2023/05/06 00:16:10;;;;;;;;;;;;;;;12.09;87.74;98815.88;5046962;28;20343;-85
2023/05/06 00:18:36;;;;;;;;;;;;;;;11.76;90.51;98808.97;5049569;28;19925;-85
2023/05/06 00:21:01;;;;;;;;;;;;;;;12.54;83.94;98803.53;5058780;22;19931;-76
2023/05/06 00:23:26;;;;;;;;;;;;;;;12.37;85.18;98802.13;5046035;28;20315;-76
2023/05/06 00:25:52;;;;;;;;;;;;;;;12.08;87.59;98803.59;5047501;28;19924;-76
2023/05/06 00:28:17;;;;;;;;;;;;;;;11.81;90.15;98804.50;5033482;28;19920;-76
2023/05/06 00:30:42;;;;;;;;;;;;;;;11.51;91.82;98804.22;5066533;28;19920;-76
2023/05/06 00:33:08;;;;;;;;;;;;;;;11.88;88.26;98806.94;5048787;28;19924;-76
2023/05/06 00:35:33;;;;;;;;;;;;;;;12.00;87.00;98808.34;5065798;28;20253;-76
2023/05/06 00:38:09;;;;;;;;;;;;;;;12.10;86.17;98801.47;5035683;28;19925;-76
2023/05/06 00:40:34;;;;;;;;;;;;;;;12.14;85.70;98798.00;5047767;28;19924;-76
2023/05/06 00:43:00;;;;;;;;;;;;;;;12.33;83.83;98812.53;5067195;28;21174;-76
2023/05/06 00:45:25;;;;;;;;;;;;;;;12.49;83.04;98810.75;5064903;28;19920;-76
2023/05/06 00:47:51;;;;;;;;;;;;;;;12.38;83.77;98807.22;5057085;28;20027;-76
2023/05/06 00:50:16;;;;;;;;;;;;;;;12.48;82.91;98811.81;5039422;28;19928;-76
2023/05/06 00:52:42;;;;;;;;;;;;;;;12.55;82.26;98809.69;5049042;28;20019;-76
2023/05/06 00:55:07;;;;;;;;;;;;;;;12.34;84.13;98808.00;5054168;28;19916;-76
2023/05/06 00:57:32;;;;;;;;;;;;;;;12.02;86.60;98805.41;5053869;28;20057;-76
2023/05/06 00:59:58;;;;;;;;;;;;;;;11.92;87.54;98811.53;5048620;28;20342;-76
2023/05/06 01:02:23;;;;;;;;;;;;;;;12.18;84.91;98814.34;5047800;28;19925;-76
2023/05/06 01:04:48;;;;;;;;;;;;;;;11.65;88.76;98812.59;5035605;28;19917;-76
2023/05/06 01:07:34;;;;;;;;;;;;;;;11.67;88.37;98803.31;5048069;28;19932;-76
2023/05/06 01:10:06;;;;;;;;;;;;;;;11.32;91.72;98813.66;5040927;28;19917;-76
2023/05/06 01:12:36;;;;;;;;;;;;;;;11.15;93.40;98821.81;5048549;28;19925;-76
2023/05/06 01:15:24;;;;;;;;;;;;;;;11.07;94.17;98824.91;5049065;28;19924;-76
2023/05/06 01:17:50;;;;;;;;;;;;;;;11.11;92.75;98822.56;5046233;28;20022;-75
2023/05/06 01:20:16;;;;;;;;;;;;;;;10.99;94.34;98820.03;5014413;28;19924;-76
2023/05/06 01:22:42;;;;;;;;;;;;;;;11.30;91.42;98813.13;5046851;28;19917;-76
2023/05/06 01:25:16;;;;;;;;;;;;;;;11.37;91.96;98819.06;5030199;28;19920;-76
2023/05/06 01:27:41;;;;;;;;;;;;;;;11.86;85.98;98812.53;5048023;28;19935;-76
2023/05/06 01:30:07;;;;;;;;;;;;;;;11.54;89.32;98822.41;5029837;28;19920;-76
2023/05/06 01:32:41;;;;;;;;;;;;;;;11.86;86.24;98817.88;5013941;28;20028;-76
2023/05/06 01:35:15;;;;;;;;;;;;;;;11.88;86.03;98817.63;5045086;28;19917;-76
2023/05/06 01:37:45;;;;;;;;;;;;;;;11.55;89.62;98825.91;5045354;28;19920;-76
2023/05/06 01:40:11;;;;;;;;;;;;;;;11.85;86.09;98826.97;5031346;28;20383;-76
2023/05/06 01:42:38;;;;;;;;;;;;;;;12.37;82.61;98827.00;5045907;28;19925;-76
2023/05/06 01:45:04;;;;;;;;;;;;;;;12.43;82.00;98822.47;5030124;28;19928;-76
2023/05/06 01:47:29;;;;;;;;;;;;;;;12.56;81.16;98828.16;5030012;28;19929;-76
2023/05/06 01:49:56;;;;;;;;;;;;;;;11.88;86.56;98821.09;5044119;28;19928;-76
2023/05/06 01:52:21;;;;;;;;;;;;;;;11.57;89.52;98834.47;5044009;28;19964;-76
2023/05/06 01:54:46;;;;;;;;;;;;;;;11.81;87.32;98827.75;5045050;28;20066;-76
2023/05/06 01:57:11;;;;;;;;;;;;;;;12.39;82.76;98830.22;5028620;28;19940;-76
2023/05/06 01:59:37;;;;;;;;;;;;;;;12.49;81.52;98837.53;5046251;28;19925;-76
2023/05/06 02:02:02;;;;;;;;;;;;;;;11.95;86.11;98827.03;5039060;28;20415;-76
2023/05/06 02:04:27;;;;;;;;;;;;;;;11.62;89.12;98837.19;5028348;28;19936;-76
2023/05/06 02:06:52;;;;;;;;;;;;;;;12.02;84.80;98824.94;5048340;28;20015;-76
2023/05/06 02:09:17;;;;;;;;;;;;;;;11.85;86.93;98832.31;5028033;28;20021;-76
2023/05/06 02:11:43;;;;;;;;;;;;;;;11.72;87.50;98832.75;5029396;28;19924;-76
2023/05/06 02:14:08;;;;;;;;;;;;;;;11.86;86.86;98841.94;5046929;28;19928;-76
2023/05/06 02:16:34;;;;;;;;;;;;;;;11.55;89.17;98840.09;5027940;28;19925;-76
2023/05/06 02:18:59;;;;;;;;;;;;;;;11.74;87.72;98841.34;5045628;28;19944;-76
2023/05/06 02:21:25;;;;;;;;;;;;;;;11.35;90.44;98839.91;5031194;28;19921;-76
2023/05/06 02:23:50;;;;;;;;;;;;;;;11.40;89.51;98831.91;5050239;28;19922;-76
2023/05/06 02:26:15;;;;;;;;;;;;;;;11.17;91.94;98849.06;5031662;28;19921;-76
2023/05/06 02:28:41;;;;;;;;;;;;;;;11.32;90.36;98833.19;5052978;28;19923;-76
2023/05/06 02:31:06;;;;;;;;;;;;;;;11.64;87.31;98837.75;5031593;28;19963;-76
2023/05/06 02:33:31;;;;;;;;;;;;;;;11.28;90.10;98829.41;5032509;28;19921;-76
2023/05/06 02:35:56;;;;;;;;;;;;;;;11.12;90.83;98833.00;5018080;28;19939;-76
2023/05/06 02:38:22;;;;;;;;;;;;;;;10.80;93.48;98837.47;5028332;28;19936;-76
2023/05/06 02:40:47;;;;;;;;;;;;;;;10.61;95.13;98830.84;5050556;28;19921;-75
2023/05/06 02:43:12;;;;;;;;;;;;;;;10.78;94.43;98836.09;5013301;28;19966;-76
2023/05/06 02:45:38;;;;;;;;;;;;;;;11.49;88.75;98822.38;5015988;28;20424;-76
2023/05/06 02:48:03;;;;;;;;;;;;;;;11.74;86.04;98819.13;5028969;28;19925;-76
2023/05/06 02:50:28;;;;;;;;;;;;;;;11.50;87.82;98828.53;5031175;28;20319;-76
2023/05/06 02:52:54;;;;;;;;;;;;;;;10.84;91.58;98837.75;5049569;28;19924;-76
2023/05/06 02:55:19;;;;;;;;;;;;;;;11.36;88.91;98833.47;5016198;28;20380;-76
2023/05/06 02:57:44;;;;;;;;;;;;;;;11.78;85.71;98831.72;5050831;28;19959;-76
2023/05/06 03:00:10;;;;;;;;;;;;;;;12.11;83.47;98841.31;5032203;28;19974;-76
2023/05/06 03:02:35;;;;;;;;;;;;;;;12.29;82.29;98842.75;5033073;28;19935;-76
2023/05/06 03:05:03;;;;;;;;;;;;;;;12.21;82.80;98835.22;5033983;28;20383;-76
2023/05/06 03:07:28;;;;;;;;;;;;;;;12.47;81.54;98839.66;5051609;28;19921;-76
2023/05/06 03:09:53;;;;;;;;;;;;;;;12.38;81.79;98843.88;5012973;28;19947;-76
2023/05/06 03:12:19;;;;;;;;;;;;;;;12.19;82.65;98838.16;5051610;28;19921;-76
2023/05/06 03:14:44;;;;;;;;;;;;;;;12.41;81.57;98841.50;5049080;28;20377;-76
2023/05/06 03:17:09;;;;;;;;;;;;;;;12.20;82.87;98842.44;5048697;28;20384;-76
2023/05/06 03:19:34;;;;;;;;;;;;;;;12.39;81.42;98845.47;5028452;28;19939;-76
2023/05/06 03:21:59;;;;;;;;;;;;;;;12.49;81.11;98851.69;5029731;28;19921;-76
2023/05/06 03:24:25;;;;;;;;;;;;;;;12.50;80.72;98853.31;5030920;28;20047;-76
2023/05/06 03:26:50;;;;;;;;;;;;;;;12.48;80.92;98854.63;5027634;28;20763;-76
2023/05/06 03:29:16;;;;;;;;;;;;;;;12.47;80.95;98853.03;5051532;28;19946;-76
2023/05/06 03:31:41;;;;;;;;;;;;;;;12.60;80.49;98855.25;5049383;28;19925;-76
2023/05/06 03:34:06;;;;;;;;;;;;;;;12.41;81.60;98851.38;5029761;28;19925;-76
2023/05/06 03:36:32;;;;;;;;;;;;;;;12.54;80.42;98848.22;5015210;28;20373;-76
2023/05/06 03:38:57;;;;;;;;;;;;;;;12.35;81.90;98852.44;5051311;28;19925;-76
2023/05/06 03:41:23;;;;;;;;;;;;;;;12.56;80.73;98854.13;5033248;28;19925;-76
2023/05/06 03:43:48;;;;;;;;;;;;;;;12.66;80.10;98849.66;5048562;28;19963;-76
2023/05/06 03:46:13;;;;;;;;;;;;;;;12.59;80.44;98848.25;5030465;28;19976;-76
2023/05/06 03:48:39;;;;;;;;;;;;;;;12.61;80.17;98851.47;5027918;28;19921;-76
2023/05/06 03:51:04;;;;;;;;;;;;;;;12.65;80.27;98853.38;5046366;28;19920;-76
2023/05/06 03:53:29;;;;;;;;;;;;;;;12.66;80.05;98864.91;5029515;28;19928;-76
2023/05/06 03:55:54;;;;;;;;;;;;;;;12.55;80.41;98864.06;5015060;28;20008;-76
2023/05/06 03:58:20;;;;;;;;;;;;;;;12.49;80.74;98864.28;5050646;28;20443;-76
2023/05/06 04:00:45;;;;;;;;;;;;;;;12.53;80.50;98855.47;5049305;28;19935;-76
2023/05/06 04:03:10;;;;;;;;;;;;;;;12.60;80.27;98863.28;5053560;28;20035;-76
2023/05/06 04:05:35;;;;;;;;;;;;;;;12.53;80.22;98862.69;5010367;28;20931;-76
2023/05/06 04:08:01;;;;;;;;;;;;;;;12.48;80.58;98862.66;5012125;28;19979;-76
2023/05/06 04:10:26;;;;;;;;;;;;;;;12.47;81.50;98866.44;5008700;28;19921;-76
2023/05/06 04:12:51;;;;;;;;;;;;;;;12.46;81.80;98873.66;5039835;28;20015;-77
2023/05/06 04:15:16;;;;;;;;;;;;;;;12.47;81.81;98871.78;5044839;28;20288;-77
2023/05/06 04:17:42;;;;;;;;;;;;;;;12.40;82.42;98871.19;5033683;28;19921;-76
2023/05/06 04:20:10;;;;;;;;;;;;;;;12.39;82.86;98864.22;5030501;28;20364;-76
2023/05/06 04:22:35;;;;;;;;;;;;;;;12.35;82.83;98871.16;5051842;28;20308;-76
2023/05/06 04:25:00;;;;;;;;;;;;;;;12.20;83.07;98871.06;5026684;28;19929;-77
2023/05/06 04:27:28;;;;;;;;;;;;;;;12.01;83.79;98866.13;5032583;28;19964;-77
2023/05/06 04:29:53;;;;;;;;;;;;;;;12.20;83.45;98871.06;5056671;28;19924;-77
2023/05/06 04:32:19;;;;;;;;;;;;;;;12.20;83.40;98877.22;5025156;28;19933;-77
2023/05/06 04:34:46;;;;;;;;;;;;;;;12.11;83.88;98875.28;5031921;28;19936;-76
2023/05/06 04:37:12;;;;;;;;;;;;;;;12.13;83.74;98870.47;5047477;28;19928;-76
2023/05/06 04:39:38;;;;;;;;;;;;;;;12.04;83.84;98881.69;5036239;28;19990;-77
2023/05/06 04:42:03;;;;;;;;;;;;;;;12.08;83.71;98889.19;5047653;28;19917;-76
2023/05/06 04:44:29;;;;;;;;;;;;;;;12.09;83.49;98883.59;5045121;28;20364;-76
2023/05/06 04:46:55;;;;;;;;;;;;;;;12.06;83.61;98885.97;5011395;28;20300;-76
2023/05/06 04:49:20;;;;;;;;;;;;;;;12.08;83.64;98879.28;5030785;28;19929;-76
2023/05/06 04:51:45;;;;;;;;;;;;;;;12.03;83.94;98882.72;5013293;28;19939;-76
2023/05/06 04:54:10;;;;;;;;;;;;;;;11.96;84.05;98882.16;5048367;28;19921;-76
2023/05/06 04:56:36;;;;;;;;;;;;;;;12.06;83.84;98896.69;5026857;28;19921;-77
2023/05/06 04:59:01;;;;;;;;;;;;;;;11.76;84.41;98899.91;5011443;28;19979;-76
2023/05/06 05:01:26;;;;;;;;;;;;;;;11.95;84.25;98895.75;5034360;28;19949;-77
2023/05/06 05:03:51;;;;;;;;;;;;;;;12.08;83.82;98895.31;5049248;28;20011;-76
2023/05/06 05:06:17;;;;;;;;;;;;;;;12.05;84.20;98901.22;5035521;28;19925;-77
2023/05/06 05:08:42;;;;;;;;;;;;;;;11.97;84.38;98905.16;5030117;28;20381;-77
2023/05/06 05:11:07;;;;;;;;;;;;;;;11.99;84.79;98912.94;5030308;28;19921;-77
2023/05/06 05:13:33;;;;;;;;;;;;;;;11.97;84.68;98907.81;5027256;28;19932;-76
2023/05/06 05:15:58;;;;;;;;;;;;;;;12.05;84.56;98909.25;5025316;28;19927;-76
2023/05/06 05:18:24;;;;;;;;;;;;;;;12.11;84.53;98926.94;5028648;28;20863;-76
2023/05/06 05:20:49;;;;;;;;;;;;;;;12.07;84.49;98914.31;5009452;28;19920;-76
2023/05/06 05:23:14;;;;;;;;;;;;;;;12.11;84.29;98918.91;5047442;28;19952;-76
2023/05/06 05:25:39;;;;;;;;;;;;;;;12.14;83.99;98914.91;5046693;28;19965;-76
2023/05/06 05:28:05;;;;;;;;;;;;;;;12.12;84.46;98915.19;5015970;28;20038;-76
2023/05/06 05:30:30;;;;;;;;;;;;;;;12.14;84.58;98909.56;5012123;28;19927;-76
2023/05/06 05:32:55;;;;;;;;;;;;;;;12.21;84.20;98907.47;5041590;28;19924;-76
2023/05/06 05:35:20;;;;;;;;;;;;;;;12.13;84.52;98913.28;5041860;28;20285;-77
2023/05/06 05:37:46;;;;;;;;;;;;;;;12.15;84.70;98913.84;5045046;28;19929;-76
2023/05/06 05:40:11;;;;;;;;;;;;;;;12.15;84.74;98913.84;5025739;28;19921;-76
2023/05/06 05:42:36;;;;;;;;;;;;;;;12.34;83.73;98929.22;5045314;28;20415;-76
2023/05/06 05:45:02;;;;;;;;;;;;;;;12.31;83.51;98931.63;5027669;28;19974;-76
2023/05/06 05:47:27;;;;;;;;;;;;;;;12.35;83.23;98930.03;5045387;28;20374;-76
2023/05/06 05:49:53;;;;;;;;;;;;;;;12.16;84.56;98929.66;5046024;28;19921;-76
2023/05/06 05:52:18;;;;;;;;;;;;;;;12.27;83.70;98936.69;5030890;28;20347;-76
2023/05/06 05:54:43;;;;;;;;;;;;;;;12.12;84.75;98939.25;5012395;28;19925;-76
2023/05/06 05:57:08;;;;;;;;;;;;;;;11.81;87.00;98937.38;5012926;28;19921;-76
2023/05/06 05:59:34;;;;;;;;;;;;;;;12.13;84.87;98937.38;5013529;28;20036;-76
2023/05/06 06:01:59;;;;;;;;;;;;;;;11.92;85.98;98939.91;5043163;28;19917;-76
2023/05/06 06:04:24;;;;;;;;;;;;;;;12.39;83.87;98941.84;5028820;28;20290;-76
2023/05/06 06:06:50;;;;;;;;;;;;;;;12.40;83.82;98944.28;5030722;28;21727;-76
2023/05/06 06:09:16;;;;;;;;;;;;;;;12.55;81.89;98943.56;5048489;28;20392;-76
2023/05/06 06:11:41;;;;;;;;;;;;;;;12.74;81.42;98947.41;5050112;28;19928;-76
2023/05/06 06:14:06;;;;;;;;;;;;;;;12.68;81.63;98949.28;5012960;28;19928;-76
2023/05/06 06:16:32;;;;;;;;;;;;;;;12.70;81.74;98936.44;5046918;28;19920;-77
2023/05/06 06:18:57;;;;;;;;;;;;;;;12.81;81.37;98931.94;5032992;28;19932;-77
2023/05/06 06:21:22;;;;;;;;;;;;;;;12.87;81.43;98940.78;5051334;28;19921;-76
2023/05/06 06:23:47;;;;;;;;;;;;;;;12.78;81.80;98945.81;5023874;28;19920;-77
2023/05/06 06:26:13;;;;;;;;;;;;;;;12.84;81.73;98954.72;5050474;28;19924;-77
2023/05/06 06:28:38;;;;;;;;;;;;;;;12.89;81.12;98946.72;5011634;28;20012;-76
2023/05/06 06:31:03;;;;;;;;;;;;;;;12.84;81.10;98950.16;5050685;28;19974;-77
2023/05/06 06:33:29;;;;;;;;;;;;;;;12.93;80.74;98945.91;5036082;28;19925;-76
2023/05/06 06:35:54;;;;;;;;;;;;;;;12.94;80.37;98938.69;5032577;28;19925;-77
2023/05/06 06:38:19;;;;;;;;;;;;;;;12.69;83.24;98937.47;5051657;28;19921;-77
2023/05/06 06:40:44;;;;;;;;;;;;;;;12.89;81.13;98944.03;5014162;28;20032;-77
2023/05/06 06:43:10;;;;;;;;;;;;;;;13.01;80.57;98944.59;5034266;28;20019;-77
2023/05/06 06:45:35;;;;;;;;;;;;;;;13.01;80.51;98942.75;5054399;28;19944;-77
2023/05/06 06:48:00;;;;;;;;;;;;;;;12.80;83.21;98949.88;5048530;28;19967;-77
2023/05/06 06:50:26;;;;;;;;;;;;;;;13.03;80.70;98950.50;5036846;28;19935;-77
2023/05/06 06:52:51;;;;;;;;;;;;;;;12.97;82.49;98946.22;5032631;28;19932;-77
2023/05/06 06:55:16;;;;;;;;;;;;;;;12.65;84.11;98947.09;5032955;28;19921;-77
2023/05/06 06:57:42;;;;;;;;;;;;;;;12.97;81.23;98941.66;5030238;28;19931;-77
2023/05/06 07:00:07;;;;;;;;;;;;;;;12.84;82.08;98949.34;5044997;28;19932;-77
2023/05/06 07:02:32;;;;;;;;;;;;;;;12.96;81.09;98955.28;5049929;28;19921;-77
2023/05/06 07:04:58;;;;;;;;;;;;;;;13.13;79.95;98951.38;5049504;28;19924;-77
2023/05/06 07:07:23;;;;;;;;;;;;;;;13.00;82.52;98951.84;5033795;28;19970;-77
2023/05/06 07:09:48;;;;;;;;;;;;;;;12.64;83.48;98963.44;5032298;28;19947;-77
2023/05/06 07:12:13;;;;;;;;;;;;;;;12.91;82.64;98958.75;5034651;28;20011;-77
2023/05/06 07:14:39;;;;;;;;;;;;;;;12.93;81.87;98961.97;5046702;28;19928;-77
2023/05/06 07:17:04;;;;;;;;;;;;;;;12.98;82.09;98962.00;5030502;28;19931;-77
2023/05/06 07:19:30;;;;;;;;;;;;;;;12.79;82.93;98961.66;5015896;28;20032;-77
2023/05/06 07:21:56;;;;;;;;;;;;;;;13.09;81.15;98963.69;5031390;28;19921;-77
2023/05/06 07:24:21;;;;;;;;;;;;;;;13.13;81.20;98967.47;5026748;28;19922;-77
2023/05/06 07:26:46;;;;;;;;;;;;;;;12.57;85.23;98968.22;5034415;28;20402;-77
2023/05/06 07:29:11;;;;;;;;;;;;;;;12.56;86.96;98966.59;5036298;28;20058;-77
2023/05/06 07:31:36;;;;;;;;;;;;;;;13.02;83.14;98973.81;5050203;28;19931;-77
2023/05/06 07:34:02;;;;;;;;;;;;;;;13.35;81.53;98973.44;5048666;28;19928;-77
2023/05/06 07:36:27;;;;;;;;;;;;;;;12.87;83.06;98979.09;5053490;28;19927;-77
2023/05/06 07:38:53;;;;;;;;;;;;;;;13.25;81.50;98986.03;5048664;28;19948;-77
2023/05/06 07:41:18;;;;;;;;;;;;;;;13.37;80.92;98982.03;5030863;28;19956;-77
2023/05/06 07:43:43;;;;;;;;;;;;;;;13.15;82.00;98986.78;5049201;28;19932;-76
2023/05/06 07:46:09;;;;;;;;;;;;;;;13.14;81.35;98979.81;5028373;28;20361;-77
2023/05/06 07:48:34;;;;;;;;;;;;;;;13.40;80.57;98981.53;5049553;28;20892;-77
2023/05/06 07:50:59;;;;;;;;;;;;;;;13.68;79.19;98985.63;5032444;28;19913;-77
2023/05/06 07:53:25;;;;;;;;;;;;;;;13.60;80.40;98982.66;5046378;28;19924;-76
2023/05/06 07:55:51;;;;;;;;;;;;;;;13.71;80.07;98974.38;5032324;28;19923;-77
2023/05/06 07:58:17;;;;;;;;;;;;;;;13.57;80.34;98980.47;5027213;28;20020;-76
2023/05/06 08:00:42;;;;;;;;;;;;;;;13.53;80.36;98981.03;5029259;28;19932;-76
2023/05/06 08:03:07;;;;;;;;;;;;;;;13.80;78.78;98985.38;5048461;28;20087;-76
2023/05/06 08:05:33;;;;;;;;;;;;;;;13.84;78.49;98983.78;5029503;28;19925;-76
2023/05/06 08:07:58;;;;;;;;;;;;;;;13.64;79.23;98975.69;5011902;28;20381;-76
2023/05/06 08:10:23;;;;;;;;;;;;;;;13.81;77.85;98978.94;5016629;28;19929;-77
2023/05/06 08:12:48;;;;;;;;;;;;;;;13.79;78.62;98992.63;5027460;28;19940;-76
2023/05/06 08:15:16;;;;;;;;;;;;;;;13.78;79.65;98995.56;5026120;28;20081;-77
2023/05/06 08:17:41;;;;;;;;;;;;;;;13.79;78.12;98997.16;5049675;28;19968;-77
2023/05/06 08:20:07;;;;;;;;;;;;;;;13.71;79.01;98997.69;5029388;28;19944;-77
2023/05/06 08:22:32;;;;;;;;;;;;;;;13.38;79.44;98986.34;5050145;28;20005;-77
2023/05/06 08:24:57;;;;;;;;;;;;;;;13.56;79.24;98995.78;5046350;28;19925;-76
2023/05/06 08:27:23;;;;;;;;;;;;;;;13.87;77.63;98999.34;5050927;28;19921;-76
2023/05/06 08:29:48;;;;;;;;;;;;;;;13.34;80.03;99001.34;5051868;28;19928;-76
2023/05/06 08:32:13;;;;;;;;;;;;;;;13.88;78.47;99004.44;5033329;28;20347;-76
2023/05/06 08:34:38;;;;;;;;;;;;;;;14.05;78.52;99004.19;5009930;28;20284;-76
2023/05/06 08:37:04;;;;;;;;;;;;;;;14.12;78.40;99004.75;5032318;28;20905;-76
2023/05/06 08:39:30;;;;;;;;;;;;;;;14.34;77.23;98999.94;5048138;28;21673;-76
2023/05/06 08:41:56;;;;;;;;;;;;;;;14.45;76.83;99009.63;5054341;28;20004;-76
2023/05/06 08:44:22;;;;;;;;;;;;;;;14.47;76.60;99010.16;5009328;28;19975;-77
2023/05/06 08:46:48;;;;;;;;;;;;;;;14.36;75.96;99010.41;5033300;28;19944;-77
2023/05/06 08:49:13;;;;;;;;;;;;;;;14.30;78.69;99006.94;5027229;28;19947;-76
2023/05/06 08:51:42;;;;;;;;;;;;;;;14.34;76.60;99009.88;5051446;28;19936;-76
2023/05/06 08:54:08;;;;;;;;;;;;;;;14.79;74.78;99015.22;5029453;28;19932;-76
2023/05/06 08:56:35;;;;;;;;;;;;;;;14.66;74.94;99010.38;5049204;28;19917;-77
2023/05/06 08:59:00;;;;;;;;;;;;;;;14.88;74.64;99011.72;5026489;28;19981;-76
2023/05/06 09:01:26;;;;;;;;;;;;;;;14.52;74.50;99002.09;5025603;28;19960;-76
2023/05/06 09:03:52;;;;;;;;;;;;;;;14.82;75.65;98994.00;5045337;28;19974;-76
2023/05/06 09:06:17;;;;;;;;;;;;;;;14.78;72.93;98997.50;5031016;28;19921;-77
2023/05/06 09:08:42;;;;;;;;;;;;;;;15.21;74.19;99004.09;5043211;28;21813;-76
2023/05/06 09:11:20;;;;;;;;;;;;;;;15.19;73.32;99003.56;5046896;28;19940;-77
2023/05/06 09:13:45;;;;;;;;;;;;;;;15.16;73.29;98999.53;5028334;28;19954;-77
2023/05/06 09:16:24;;;;;;;;;;;;;;;15.13;72.91;98993.91;5038006;28;19924;-77
2023/05/06 09:18:50;;;;;;;;;;;;;;;14.92;73.22;98990.47;5044546;28;20015;-77
2023/05/06 09:21:15;;;;;;;;;;;;;;;15.21;73.65;98999.53;5032416;28;20007;-77
2023/05/06 09:23:40;;;;;;;;;;;;;;;14.67;71.57;98995.91;5031758;28;19928;-77
2023/05/06 09:26:06;;;;;;;;;;;;;;;14.74;73.65;98997.22;5051273;28;19924;-77
2023/05/06 09:28:31;;;;;;;;;;;;;;;14.64;72.76;98994.56;5027545;28;19920;-77
2023/05/06 09:30:56;;;;;;;;;;;;;;;14.79;72.52;98999.91;5049351;28;19925;-77
2023/05/06 09:33:22;;;;;;;;;;;;;;;15.03;73.46;98992.84;5028410;28;19925;-77
2023/05/06 09:35:48;;;;;;;;;;;;;;;15.16;72.34;98994.16;5047853;28;19921;-77
2023/05/06 09:38:14;;;;;;;;;;;;;;;15.34;71.60;99003.50;5030410;28;19931;-77
2023/05/06 09:40:39;;;;;;;;;;;;;;;15.93;72.63;98988.16;5043595;28;19913;-77
2023/05/06 09:43:04;;;;;;;;;;;;;;;15.42;70.41;98992.19;5032570;28;19921;-77
2023/05/06 09:45:30;;;;;;;;;;;;;;;15.34;72.67;98992.75;5042406;28;19929;-77
2023/05/06 09:47:56;;;;;;;;;;;;;;;15.41;71.22;98988.69;5029283;28;19917;-77
2023/05/06 09:50:22;;;;;;;;;;;;;;;15.50;73.85;98986.25;5046456;28;20385;-77
2023/05/06 09:52:48;;;;;;;;;;;;;;;15.53;71.56;98993.78;5028169;28;19975;-77
2023/05/06 09:55:13;;;;;;;;;;;;;;;15.87;73.17;98997.34;5037822;28;19962;-77
2023/05/06 09:57:39;;;;;;;;;;;;;;;15.90;71.28;98988.69;5010390;28;20312;-77
2023/05/06 10:00:06;;;;;;;;;;;;;;;15.87;70.53;98994.66;5049476;28;19928;-77
2023/05/06 10:02:32;;;;;;;;;;;;;;;15.79;68.60;98997.13;5044331;28;19913;-77
2023/05/06 10:04:58;;;;;;;;;;;;;;;16.07;70.69;98997.22;5049839;28;19924;-77
2023/05/06 10:07:27;;;;;;;;;;;;;;;16.02;72.68;98991.84;5046506;28;19940;-77
2023/05/06 10:09:53;;;;;;;;;;;;;;;16.01;70.74;99000.22;5046495;28;19916;-77
2023/05/06 10:12:18;;;;;;;;;;;;;;;15.88;71.60;98996.25;5045405;28;19967;-77
2023/05/06 10:14:44;;;;;;;;;;;;;;;16.38;70.89;98998.56;5040199;28;19932;-77
2023/05/06 10:17:10;;;;;;;;;;;;;;;16.08;69.65;98998.00;5043749;28;20027;-77
2023/05/06 10:20:08;;;;;;;;;;;;;;;16.25;71.88;99001.91;5034165;28;19909;-79
2023/05/06 10:22:43;;;;;;;;;;;;;;;16.34;70.05;98988.63;5023157;28;20009;-79
2023/05/06 10:25:15;;;;;;;;;;;;;;;16.92;68.79;98992.19;5029082;28;19917;-79
2023/05/06 10:27:43;;;;;;;;;;;;;;;17.23;70.51;98988.84;5038482;28;19924;-79
2023/05/06 10:30:08;;;;;;;;;;;;;;;17.23;69.48;98994.25;5030631;28;19921;-79
2023/05/06 10:32:35;;;;;;;;;;;;;;;17.07;67.54;98984.72;5048802;28;20011;-79
2023/05/06 10:35:08;;;;;;;;;;;;;;;16.47;68.96;98983.41;5047451;28;19929;-79
2023/05/06 10:37:33;;;;;;;;;;;;;;;16.67;69.12;98989.72;5041049;28;19916;-79
2023/05/06 10:39:58;;;;;;;;;;;;;;;16.85;67.65;98986.31;5043396;28;19987;-79
2023/05/06 10:42:32;;;;;;;;;;;;;;;16.70;70.28;98983.78;5029173;28;20615;-79
2023/05/06 10:44:57;;;;;;;;;;;;;;;17.08;68.74;98978.22;5049481;28;19919;-78
2023/05/06 10:47:22;;;;;;;;;;;;;;;17.36;67.73;98975.75;5050059;28;20004;-78
2023/05/06 10:50:06;;;;;;;;;;;;;;;17.69;67.51;98969.41;5035031;28;19928;-78
2023/05/06 10:52:45;;;;;;;;;;;;;;;17.93;66.17;98970.16;5042214;28;20292;-78
2023/05/06 10:55:29;;;;;;;;;;;;;;;18.05;65.86;98972.38;5047731;28;19974;-78
2023/05/06 10:57:55;;;;;;;;;;;;;;;18.39;64.52;98972.94;5043862;28;20387;-78
2023/05/06 11:00:21;;;;;;;;;;;;;;;18.42;62.77;98972.31;5030865;28;19920;-78
2023/05/06 11:02:50;;;;;;;;;;;;;;;18.66;62.32;98968.41;5049611;28;19916;-78
2023/05/06 11:05:15;;;;;;;;;;;;;;;17.90;62.37;98971.53;5035061;28;20385;-78
2023/05/06 11:07:40;;;;;;;;;;;;;;;17.82;65.96;98969.47;5047460;28;19921;-78
2023/05/06 11:10:09;;;;;;;;;;;;;;;17.59;64.21;98970.34;5017414;28;19921;-77
2023/05/06 11:12:48;;;;;;;;;;;;;;;17.03;64.52;98962.13;5031217;28;19921;-78
2023/05/06 11:15:22;;;;;;;;;;;;;;;17.37;64.55;98966.56;5039361;28;20340;-78
2023/05/06 11:17:48;;;;;;;;;;;;;;;17.82;63.81;98974.88;5017136;28;19930;-78
2023/05/06 11:20:17;;;;;;;;;;;;;;;17.92;63.41;98971.22;5031549;28;19921;-78
2023/05/06 11:22:42;;;;;;;;;;;;;;;18.27;64.68;98975.28;5038467;28;19928;-78
2023/05/06 11:25:08;;;;;;;;;;;;;;;18.31;64.91;98981.69;5013967;28;20273;-78
2023/05/06 11:27:34;;;;;;;;;;;;;;;18.22;62.25;98968.03;5030819;28;19929;-78
2023/05/06 11:29:59;;;;;;;;;;;;;;;18.41;65.16;98973.44;5032667;28;20450;-78
2023/05/06 11:32:27;;;;;;;;;;;;;;;18.45;64.82;98966.34;5030871;28;19932;-78
2023/05/06 11:34:55;;;;;;;;;;;;;;;18.50;64.18;98968.97;5043928;28;20349;-78
2023/05/06 11:37:28;;;;;;;;;;;;;;;18.51;62.81;98965.97;5043965;28;20478;-77
2023/05/06 11:39:54;;;;;;;;;;;;;;;19.06;62.46;98966.84;5049329;28;19920;-78
2023/05/06 11:42:23;;;;;;;;;;;;;;;19.08;60.92;98967.34;5048772;28;19932;-78
2023/05/06 11:44:48;;;;;;;;;;;;;;;18.77;59.65;98968.22;5030442;28;19974;-78
2023/05/06 11:47:13;;;;;;;;;;;;;;;19.58;62.79;98972.84;5045699;28;19925;-78
2023/05/06 11:49:40;;;;;;;;;;;;;;;19.82;61.01;98974.19;5028417;28;20299;-78
2023/05/06 11:52:06;;;;;;;;;;;;;;;19.76;60.75;98971.91;5046986;28;20002;-78
2023/05/06 11:54:37;;;;;;;;;;;;;;;19.38;60.33;98968.66;5027503;28;19935;-77
2023/05/06 11:57:02;;;;;;;;;;;;;;;19.82;60.64;98968.78;5025066;28;20011;-77
2023/05/06 11:59:28;;;;;;;;;;;;;;;19.30;60.25;98970.16;5031168;28;20372;-78
2023/05/06 12:01:55;;;;;;;;;;;;;;;19.36;60.33;98960.03;5028458;28;19928;-78
2023/05/06 12:04:21;;;;;;;;;;;;;;;19.38;58.76;98963.25;5040325;28;20339;-77
2023/05/06 12:06:46;;;;;;;;;;;;;;;19.07;58.51;98957.63;5029268;28;19983;-77
2023/05/06 12:09:11;;;;;;;;;;;;;;;19.79;60.10;98966.66;5028184;28;20027;-78
2023/05/06 12:11:38;;;;;;;;;;;;;;;19.70;58.34;98968.50;5046403;28;20020;-77
2023/05/06 12:14:05;;;;;;;;;;;;;;;20.02;59.84;98964.78;5048170;28;19920;-77
2023/05/06 12:16:30;;;;;;;;;;;;;;;19.39;57.68;98959.44;5024666;28;19963;-77
2023/05/06 12:18:56;;;;;;;;;;;;;;;19.78;59.91;98962.38;5033168;28;20404;-77
2023/05/06 12:21:25;;;;;;;;;;;;;;;19.01;58.43;98964.22;5021737;28;19921;-78
2023/05/06 12:23:55;;;;;;;;;;;;;;;18.94;58.41;98969.22;5047821;28;19924;-78
2023/05/06 12:26:21;;;;;;;;;;;;;;;18.09;59.53;98966.09;5029383;28;19916;-78
2023/05/06 12:29:02;;;;;;;;;;;;;;;18.25;60.39;98966.66;5030978;28;19921;-78
2023/05/06 12:31:27;;;;;;;;;;;;;;;18.26;60.08;98969.06;5043547;28;19928;-78
2023/05/06 12:33:52;;;;;;;;;;;;;;;18.77;60.81;98970.91;5032712;28;20269;-77
2023/05/06 12:36:20;;;;;;;;;;;;;;;18.97;61.72;98974.06;5047363;28;20020;-78
2023/05/06 12:38:52;;;;;;;;;;;;;;;18.24;61.47;98963.16;5032508;28;19964;-77
2023/05/06 12:41:20;;;;;;;;;;;;;;;19.22;61.24;98965.41;5031029;28;19932;-78
2023/05/06 12:43:46;;;;;;;;;;;;;;;18.60;59.17;98964.19;5046808;28;19917;-77